createdAt,value
2019-05-23T00:01:25.829Z,6.33
2019-05-23T00:03:56.083Z,9.13
2019-05-23T00:06:33.800Z,11.65
2019-05-23T00:09:02.111Z,7.70
2019-05-23T00:11:32.913Z,7.60
2019-05-23T00:14:07.860Z,7.37
2019-05-23T00:16:38.603Z,9.13
2019-05-23T00:19:08.239Z,9.60
2019-05-23T00:21:37.388Z,9.20
2019-05-23T00:24:06.499Z,6.47
2019-05-23T00:26:36.040Z,8.90
2019-05-23T00:29:10.633Z,9.15
2019-05-23T00:31:54.004Z,8.45
2019-05-23T00:34:24.154Z,8.60
2019-05-23T00:36:54.678Z,9.33
2019-05-23T00:39:24.724Z,8.30
2019-05-23T00:41:54.377Z,10.35
2019-05-23T00:44:23.458Z,10.43
2019-05-23T00:46:54.117Z,8.68
2019-05-23T00:49:22.819Z,10.08
2019-05-23T00:51:51.426Z,9.55
2019-05-23T00:54:20.566Z,10.05
2019-05-23T00:56:50.269Z,8.23
2019-05-23T00:59:27.094Z,10.08
2019-05-23T01:01:49.760Z,11.25
2019-05-23T01:04:19.020Z,13.28
2019-05-23T01:06:47.972Z,10.60
2019-05-23T01:09:17.330Z,11.55
2019-05-23T01:11:47.736Z,10.85
2019-05-23T01:14:16.942Z,10.55
2019-05-23T01:16:46.036Z,11.73
2019-05-23T01:19:15.368Z,11.48
2019-05-23T01:21:51.631Z,10.20
2019-05-23T01:24:21.860Z,10.68
2019-05-23T01:26:50.565Z,8.85
2019-05-23T01:29:21.128Z,11.30
2019-05-23T01:31:52.065Z,9.13
2019-05-23T01:34:22.043Z,8.10
2019-05-23T01:36:51.182Z,10.58
2019-05-23T01:39:20.058Z,11.60
2019-05-23T01:41:48.609Z,8.68
2019-05-23T01:44:17.915Z,12.50
2019-05-23T01:46:46.709Z,11.57
2019-05-23T01:49:19.130Z,9.33
2019-05-23T01:51:49.188Z,8.43
2019-05-23T01:54:19.174Z,9.30
2019-05-23T01:56:48.278Z,10.13
2019-05-23T01:59:17.499Z,10.25
2019-05-23T02:01:46.311Z,11.10
2019-05-23T02:04:15.577Z,8.90
2019-05-23T02:06:44.491Z,9.25
2019-05-23T02:09:13.692Z,9.55
2019-05-23T02:11:42.844Z,9.28
2019-05-23T02:14:11.981Z,12.23
2019-05-23T02:16:43.043Z,9.03
2019-05-23T02:19:13.840Z,10.90
2019-05-23T02:21:43.227Z,10.75
2019-05-23T02:24:12.423Z,8.28
2019-05-23T02:26:41.007Z,10.28
2019-05-23T02:29:10.615Z,9.23
2019-05-23T02:31:40.385Z,10.90
2019-05-23T02:34:09.441Z,10.58
2019-05-23T02:36:39.228Z,13.18
2019-05-23T02:39:10.032Z,11.10
2019-05-23T02:41:40.315Z,9.75
2019-05-23T02:44:13.694Z,11.88
2019-05-23T02:47:01.806Z,10.03
2019-05-23T02:49:32.446Z,9.00
2019-05-23T02:52:23.078Z,9.30
2019-05-23T02:54:54.272Z,12.37
2019-05-23T02:57:25.303Z,12.35
2019-05-23T02:59:56.955Z,10.10
2019-05-23T03:02:45.159Z,11.78
2019-05-23T03:05:16.978Z,10.28
2019-05-23T03:07:46.078Z,10.95
2019-05-23T03:10:16.581Z,11.18
2019-05-23T03:12:47.321Z,9.05
2019-05-23T03:15:16.908Z,10.43
2019-05-23T03:17:48.896Z,10.23
2019-05-23T03:20:19.330Z,12.33
2019-05-23T03:22:50.955Z,10.20
2019-05-23T03:25:39.266Z,12.03
2019-05-23T03:28:09.692Z,12.65
2019-05-23T03:30:40.075Z,12.03
2019-05-23T03:33:13.384Z,11.80
2019-05-23T03:35:46.481Z,11.25
2019-05-23T03:38:15.501Z,10.67
2019-05-23T03:40:44.068Z,12.05
2019-05-23T03:43:13.332Z,10.63
2019-05-23T03:45:47.771Z,10.95
2019-05-23T03:48:16.935Z,11.65
2019-05-23T03:50:46.860Z,11.78
2019-05-23T03:53:15.529Z,11.50
2019-05-23T03:55:45.690Z,12.70
2019-05-23T03:58:14.869Z,11.10
2019-05-23T04:00:45.470Z,11.03
2019-05-23T04:03:13.972Z,12.63
2019-05-23T04:05:43.855Z,13.30
2019-05-23T04:08:12.992Z,10.13
2019-05-23T04:10:42.120Z,12.15
2019-05-23T04:13:10.954Z,12.63
2019-05-23T04:15:39.654Z,12.10
2019-05-23T04:18:08.959Z,11.40
2019-05-23T04:20:37.757Z,9.25
2019-05-23T04:23:07.643Z,11.48
2019-05-23T04:25:36.274Z,10.35
2019-05-23T04:28:05.356Z,11.73
2019-05-23T04:30:34.427Z,11.83
2019-05-23T04:33:03.728Z,12.25
2019-05-23T04:35:32.942Z,10.30
2019-05-23T04:38:01.725Z,13.38
2019-05-23T04:40:30.713Z,11.18
2019-05-23T04:42:59.291Z,10.78
2019-05-23T04:45:28.838Z,9.73
2019-05-23T04:47:57.805Z,9.70
2019-05-23T04:50:27.726Z,14.90
2019-05-23T04:52:57.287Z,10.88
2019-05-23T04:55:27.138Z,10.58
2019-05-23T04:57:56.484Z,10.75
2019-05-23T05:00:26.374Z,10.40
2019-05-23T05:02:55.339Z,13.00
2019-05-23T05:05:24.733Z,9.98
2019-05-23T05:08:33.118Z,11.05
2019-05-23T05:11:02.049Z,12.70
2019-05-23T05:13:31.714Z,11.18
2019-05-23T05:16:00.510Z,9.65
2019-05-23T05:18:29.846Z,13.78
2019-05-23T05:20:58.462Z,12.40
2019-05-23T05:23:28.653Z,10.65
2019-05-23T05:25:57.254Z,10.82
2019-05-23T05:28:25.903Z,12.00
2019-05-23T05:31:09.445Z,13.15
2019-05-23T05:33:26.058Z,11.88
2019-05-23T05:35:54.661Z,11.57
2019-05-23T05:38:23.990Z,12.45
2019-05-23T05:40:52.664Z,12.58
2019-05-23T05:43:21.179Z,15.18
2019-05-23T05:45:49.908Z,13.13
2019-05-23T05:48:18.707Z,14.33
2019-05-23T05:50:47.220Z,14.70
2019-05-23T05:53:15.853Z,13.75
2019-05-23T05:55:44.767Z,12.85
2019-05-23T05:58:13.310Z,13.25
2019-05-23T06:00:50.083Z,15.28
2019-05-23T06:03:18.652Z,15.60
2019-05-23T06:06:05.252Z,12.28
2019-05-23T06:08:38.221Z,13.93
2019-05-23T06:11:11.008Z,13.77
2019-05-23T06:13:39.932Z,13.07
2019-05-23T06:16:08.762Z,13.35
2019-05-23T06:18:37.311Z,14.05
2019-05-23T06:21:07.574Z,13.70
2019-05-23T06:23:36.698Z,15.38
2019-05-23T06:26:05.250Z,11.83
2019-05-23T06:28:34.194Z,15.20
2019-05-23T06:31:04.396Z,14.35
2019-05-23T06:33:32.962Z,11.20
2019-05-23T06:36:03.049Z,11.75
2019-05-23T06:38:32.354Z,11.85
2019-05-23T06:41:02.890Z,13.20
2019-05-23T06:43:33.507Z,12.75
2019-05-23T06:46:04.882Z,12.47
2019-05-23T06:48:33.824Z,11.88
2019-05-23T06:51:02.619Z,9.65
2019-05-23T06:53:31.176Z,11.63
2019-05-23T06:55:59.720Z,9.15
2019-05-23T06:58:29.084Z,9.55
2019-05-23T07:00:57.835Z,10.70
2019-05-23T07:03:41.243Z,11.40
2019-05-23T07:05:57.735Z,8.95
2019-05-23T07:08:29.379Z,9.08
2019-05-23T07:10:58.208Z,7.60
2019-05-23T07:13:29.651Z,8.65
2019-05-23T07:15:58.322Z,8.98
2019-05-23T07:18:27.671Z,9.10
2019-05-23T07:20:56.289Z,10.98
2019-05-23T07:23:25.219Z,9.55
2019-05-23T07:25:53.760Z,10.00
2019-05-23T07:28:22.305Z,8.85
2019-05-23T07:30:51.442Z,8.10
2019-05-23T07:33:20.053Z,10.55
2019-05-23T07:35:48.668Z,8.45
2019-05-23T07:38:17.849Z,8.28
2019-05-23T07:40:49.112Z,6.25
2019-05-23T07:43:17.866Z,9.60
2019-05-23T07:45:53.997Z,8.75
2019-05-23T07:48:23.012Z,9.03
2019-05-23T07:50:51.560Z,7.58
2019-05-23T07:53:24.671Z,6.87
2019-05-23T07:55:54.792Z,8.48
2019-05-23T07:58:23.303Z,8.08
2019-05-23T08:00:56.225Z,6.95
2019-05-23T08:03:28.092Z,7.15
2019-05-23T08:05:56.851Z,7.17
2019-05-23T08:08:25.408Z,7.80
2019-05-23T08:10:54.003Z,6.03
2019-05-23T08:13:23.793Z,7.80
2019-05-23T08:15:53.619Z,7.90
2019-05-23T08:18:22.514Z,6.00
2019-05-23T08:20:51.158Z,5.47
2019-05-23T08:23:19.779Z,6.67
2019-05-23T08:25:48.901Z,5.50
2019-05-23T08:28:17.490Z,8.00
2019-05-23T08:30:46.513Z,5.92
2019-05-23T08:33:15.933Z,6.47
2019-05-23T08:35:45.679Z,4.67
2019-05-23T08:38:14.677Z,4.35
2019-05-23T08:40:44.433Z,4.33
2019-05-23T08:43:14.383Z,3.85
2019-05-23T08:45:43.454Z,4.60
2019-05-23T08:48:12.077Z,3.20
2019-05-23T08:50:41.007Z,3.95
2019-05-23T08:53:09.908Z,4.58
2019-05-23T08:55:39.547Z,3.10
2019-05-23T08:58:10.354Z,3.70
2019-05-23T09:00:41.014Z,2.67
2019-05-23T09:03:10.509Z,3.27
2019-05-23T09:05:40.825Z,4.28
2019-05-23T09:08:09.651Z,3.27
2019-05-23T09:10:39.407Z,3.35
2019-05-23T09:13:08.822Z,3.70
2019-05-23T09:15:37.842Z,3.85
2019-05-23T09:18:06.904Z,5.75
2019-05-23T09:20:36.828Z,6.45
2019-05-23T09:23:05.446Z,4.78
2019-05-23T09:25:34.056Z,3.87
2019-05-23T09:28:02.747Z,5.08
2019-05-23T09:30:32.766Z,4.53
2019-05-23T09:33:02.078Z,3.77
2019-05-23T09:35:31.463Z,3.05
2019-05-23T09:38:00.008Z,4.25
2019-05-23T09:40:28.950Z,5.25
2019-05-23T09:42:57.489Z,4.25
2019-05-23T09:45:26.155Z,4.00
2019-05-23T09:47:54.648Z,5.25
2019-05-23T09:50:24.850Z,5.42
2019-05-23T09:52:53.530Z,4.97
2019-05-23T09:55:22.971Z,4.50
2019-05-23T09:57:51.504Z,3.70
2019-05-23T10:00:21.737Z,4.58
2019-05-23T10:02:50.455Z,3.45
2019-05-23T10:05:19.004Z,4.37
2019-05-23T10:07:47.663Z,4.78
2019-05-23T10:10:17.888Z,5.65
2019-05-23T10:12:46.816Z,4.75
2019-05-23T10:15:19.974Z,4.53
2019-05-23T10:17:48.631Z,4.83
2019-05-23T10:20:17.306Z,5.15
2019-05-23T10:22:45.850Z,4.45
2019-05-23T10:25:14.459Z,5.45
2019-05-23T10:27:43.049Z,4.90
2019-05-23T10:30:13.905Z,6.50
2019-05-23T10:32:42.509Z,5.00
2019-05-23T10:35:12.550Z,4.03
2019-05-23T10:37:41.029Z,4.85
2019-05-23T10:40:10.467Z,3.10
2019-05-23T10:42:38.952Z,4.10
2019-05-23T10:45:09.005Z,4.53
2019-05-23T10:47:37.529Z,4.47
2019-05-23T10:50:09.935Z,3.65
2019-05-23T10:52:38.673Z,3.83
2019-05-23T10:55:07.967Z,5.00
2019-05-23T10:57:36.763Z,3.92
2019-05-23T11:00:11.249Z,4.70
2019-05-23T11:02:40.518Z,4.72
2019-05-23T11:05:13.897Z,6.17
2019-05-23T11:07:43.111Z,4.53
2019-05-23T11:10:13.126Z,3.55
2019-05-23T11:12:42.791Z,4.85
2019-05-23T11:15:11.991Z,4.08
2019-05-23T11:17:40.987Z,5.17
2019-05-23T11:20:12.123Z,4.70
2019-05-23T11:22:42.250Z,4.20
2019-05-23T11:25:11.963Z,4.92
2019-05-23T11:27:41.174Z,4.62
2019-05-23T11:30:13.365Z,5.40
2019-05-23T11:32:42.190Z,4.47
2019-05-23T11:35:11.034Z,4.15
2019-05-23T11:37:41.854Z,4.37
2019-05-23T11:40:10.779Z,3.22
2019-05-23T11:42:39.321Z,5.35
2019-05-23T11:45:08.864Z,4.60
2019-05-23T11:47:37.591Z,5.70
2019-05-23T11:50:08.328Z,3.90
2019-05-23T11:52:37.606Z,5.53
2019-05-23T11:55:07.717Z,5.30
2019-05-23T11:57:38.165Z,4.92
2019-05-23T12:00:10.786Z,3.77
2019-05-23T12:02:44.136Z,4.10
2019-05-23T12:05:20.921Z,4.75
2019-05-23T12:07:49.665Z,3.12
2019-05-23T12:10:18.498Z,4.53
2019-05-23T12:12:47.067Z,5.70
2019-05-23T12:15:17.414Z,6.03
2019-05-23T12:17:45.938Z,5.28
2019-05-23T12:20:14.981Z,5.22
2019-05-23T12:22:44.677Z,4.45
2019-05-23T12:25:22.523Z,4.28
2019-05-23T12:27:46.841Z,5.20
2019-05-23T12:30:17.018Z,3.72
2019-05-23T12:32:45.571Z,3.87
2019-05-23T12:35:14.262Z,3.52
2019-05-23T12:37:42.772Z,6.95
2019-05-23T12:40:12.772Z,4.53
2019-05-23T12:42:41.358Z,5.60
2019-05-23T12:45:11.044Z,3.98
2019-05-23T12:47:53.388Z,5.22
2019-05-23T12:50:26.372Z,3.60
2019-05-23T12:52:54.985Z,4.83
2019-05-23T12:55:24.516Z,4.83
2019-05-23T12:57:53.004Z,5.15
2019-05-23T13:00:24.132Z,3.12
2019-05-23T13:02:52.838Z,6.25
2019-05-23T13:05:21.937Z,5.72
2019-05-23T13:07:51.865Z,4.55
2019-05-23T13:10:24.079Z,4.62
2019-05-23T13:12:50.770Z,4.30
2019-05-23T13:15:19.920Z,3.75
2019-05-23T13:17:48.486Z,3.58
2019-05-23T13:20:17.279Z,3.83
2019-05-23T13:22:45.843Z,3.60
2019-05-23T13:25:15.576Z,5.90
2019-05-23T13:27:44.249Z,4.95
2019-05-23T13:30:13.515Z,3.05
2019-05-23T13:32:42.164Z,5.12
2019-05-23T13:35:11.034Z,4.75
2019-05-23T13:37:53.023Z,3.65
2019-05-23T13:40:13.466Z,4.72
2019-05-23T13:42:42.344Z,4.53
2019-05-23T13:45:11.179Z,4.37
2019-05-23T13:47:39.994Z,4.65
2019-05-23T13:50:09.574Z,4.15
2019-05-23T13:52:38.249Z,3.92
2019-05-23T13:55:08.294Z,4.92
2019-05-23T13:57:37.289Z,5.22
2019-05-23T14:00:07.483Z,4.15
2019-05-23T14:02:36.644Z,6.00
2019-05-23T14:05:08.023Z,3.98
2019-05-23T14:07:37.907Z,4.35
2019-05-23T14:10:09.265Z,7.17
2019-05-23T14:12:38.451Z,5.28
2019-05-23T14:15:08.028Z,5.03
2019-05-23T14:17:38.230Z,5.03
2019-05-23T14:20:07.231Z,4.72
2019-05-23T14:22:37.468Z,5.20
2019-05-23T14:25:07.335Z,3.42
2019-05-23T14:27:56.180Z,5.37
2019-05-23T14:30:38.103Z,4.45
2019-05-23T14:33:23.347Z,4.90
2019-05-23T14:35:53.608Z,5.70
2019-05-23T14:38:30.911Z,7.05
2019-05-23T14:40:53.061Z,4.80
2019-05-23T14:43:26.060Z,5.20
2019-05-23T14:46:08.561Z,5.10
2019-05-23T14:48:48.095Z,4.90
2019-05-23T14:51:21.269Z,5.55
2019-05-23T14:54:06.306Z,4.67
2019-05-23T14:56:38.826Z,5.65
2019-05-23T14:59:07.559Z,4.30
2019-05-23T15:01:37.045Z,6.33
2019-05-23T15:04:06.642Z,4.67
2019-05-23T15:06:35.916Z,4.70
2019-05-23T15:09:07.582Z,4.20
2019-05-23T15:11:36.265Z,6.65
2019-05-23T15:14:05.779Z,4.28
2019-05-23T15:16:35.014Z,4.22
2019-05-23T15:19:04.563Z,4.60
2019-05-23T15:21:33.193Z,4.37
2019-05-23T15:24:01.731Z,5.87
2019-05-23T15:26:30.227Z,8.10
2019-05-23T15:28:58.774Z,4.62
2019-05-23T15:31:27.337Z,6.37
2019-05-23T15:33:55.844Z,4.95
2019-05-23T15:36:24.656Z,5.42
2019-05-23T15:41:42.800Z,6.62
2019-05-23T15:44:24.227Z,5.55
2019-05-23T15:46:41.618Z,5.45
2019-05-23T15:49:11.792Z,4.33
2019-05-23T15:51:42.035Z,5.25
2019-05-23T15:54:15.167Z,4.75
2019-05-23T15:56:45.349Z,4.42
2019-05-23T15:59:24.585Z,6.45
2019-05-23T16:02:03.599Z,4.75
2019-05-23T16:04:32.355Z,4.25
2019-05-23T16:07:01.054Z,6.17
2019-05-23T16:09:31.043Z,3.80
2019-05-23T16:11:59.966Z,5.35
2019-05-23T16:14:29.053Z,5.90
2019-05-23T16:16:57.690Z,5.78
2019-05-23T16:19:26.241Z,4.65
2019-05-23T16:21:54.964Z,7.85
2019-05-23T16:24:24.070Z,5.15
2019-05-23T16:26:52.656Z,5.47
2019-05-23T16:29:22.118Z,3.98
2019-05-23T16:31:50.613Z,6.05
2019-05-23T16:34:19.299Z,5.08
2019-05-23T16:36:47.998Z,4.80
2019-05-23T16:39:45.995Z,4.17
2019-05-23T16:42:00.559Z,4.22
2019-05-23T16:44:29.133Z,4.03
2019-05-23T16:46:57.835Z,6.12
2019-05-23T16:49:26.392Z,3.55
2019-05-23T16:51:55.017Z,5.97
2019-05-23T16:54:25.678Z,5.50
2019-05-23T16:57:12.556Z,4.00
2019-05-23T16:59:42.867Z,4.28
2019-05-23T17:02:13.094Z,4.03
2019-05-23T17:04:43.330Z,3.42
2019-05-23T17:07:16.395Z,4.65
2019-05-23T17:10:06.085Z,6.12
2019-05-23T17:12:25.239Z,4.50
2019-05-23T17:15:07.871Z,3.42
2019-05-23T17:18:02.043Z,7.17
2019-05-23T17:20:25.257Z,5.62
2019-05-23T17:22:58.415Z,3.60
2019-05-23T17:25:40.228Z,5.83
2019-05-23T17:28:15.970Z,4.83
2019-05-23T17:30:52.445Z,2.50
2019-05-23T17:33:22.064Z,6.37
2019-05-23T17:35:50.667Z,3.87
2019-05-23T17:38:20.647Z,5.00
2019-05-23T17:40:49.467Z,6.47
2019-05-23T17:43:21.409Z,6.60
2019-05-23T17:45:49.892Z,3.67
2019-05-23T17:48:18.685Z,7.67
2019-05-23T17:50:47.347Z,3.90
2019-05-23T17:53:16.196Z,4.90
2019-05-23T17:55:46.037Z,3.72
2019-05-23T17:58:16.265Z,6.15
2019-05-23T18:00:46.560Z,4.97
2019-05-23T18:03:15.191Z,4.92
2019-05-23T18:05:43.837Z,3.72
2019-05-23T18:08:12.999Z,5.55
2019-05-23T18:29:47.561Z,4.67
2019-05-23T18:32:18.303Z,5.85
2019-05-23T18:34:47.193Z,7.50
2019-05-23T18:37:18.329Z,4.42
2019-05-23T18:39:47.802Z,3.95
2019-05-23T18:42:17.234Z,5.83
2019-05-23T18:44:47.790Z,3.17
2019-05-23T18:47:28.219Z,5.12
2019-05-23T18:49:58.713Z,4.25
2019-05-23T18:52:27.412Z,4.72
2019-05-23T18:54:56.134Z,5.30
2019-05-23T18:57:29.793Z,4.40
2019-05-23T19:02:27.049Z,4.28
2019-05-23T19:04:56.802Z,3.58
2019-05-23T19:07:26.668Z,4.53
2019-05-23T19:09:55.558Z,5.50
2019-05-23T19:12:26.310Z,4.90
2019-05-23T19:14:55.205Z,5.83
2019-05-23T19:17:24.270Z,4.15
2019-05-23T19:19:52.909Z,5.00
2019-05-23T19:22:21.830Z,4.20
2019-05-23T19:24:50.427Z,8.18
2019-05-23T19:27:20.067Z,5.58
2019-05-23T19:29:49.149Z,5.75
2019-05-23T19:32:18.243Z,3.65
2019-05-23T19:34:46.959Z,6.50
2019-05-23T19:37:16.610Z,4.95
2019-05-23T19:39:49.894Z,4.87
2019-05-23T19:42:18.896Z,5.25
2019-05-23T19:44:47.834Z,4.80
2019-05-23T19:47:16.571Z,4.85
2019-05-23T19:49:46.161Z,5.28
2019-05-23T19:52:14.746Z,5.08
2019-05-23T19:54:43.757Z,4.35
2019-05-23T19:57:12.467Z,4.42
2019-05-23T19:59:41.243Z,4.83
2019-05-23T20:02:11.692Z,6.28
2019-05-23T20:04:41.879Z,4.65
2019-05-23T20:07:14.941Z,5.05
2019-05-23T20:09:41.117Z,5.05
2019-05-23T20:12:09.626Z,6.12
2019-05-23T20:14:38.283Z,5.70
2019-05-23T20:17:06.832Z,6.10
2019-05-23T20:19:35.419Z,6.28
2019-05-23T20:22:04.373Z,4.47
2019-05-23T20:24:33.606Z,5.67
2019-05-23T20:27:02.448Z,5.15
2019-05-23T20:29:31.373Z,5.37
2019-05-23T20:32:00.125Z,5.28
2019-05-23T20:34:29.560Z,4.75
2019-05-23T20:36:58.214Z,3.85
2019-05-23T20:39:27.297Z,5.67
2019-05-23T20:42:10.183Z,6.05
2019-05-23T20:44:26.325Z,7.55
2019-05-23T20:46:55.088Z,4.45
2019-05-23T20:49:27.053Z,3.92
2019-05-23T20:51:54.261Z,5.35
2019-05-23T20:54:23.003Z,4.90
2019-05-23T20:56:52.094Z,4.55
2019-05-23T20:59:20.830Z,4.45
2019-05-23T21:01:49.543Z,5.75
2019-05-23T21:04:18.089Z,7.62
2019-05-23T21:06:48.521Z,7.92
2019-05-23T21:09:17.621Z,5.28
2019-05-23T21:11:46.263Z,5.45
2019-05-23T21:14:15.818Z,5.08
2019-05-23T21:16:45.515Z,5.92
2019-05-23T21:19:14.146Z,6.42
2019-05-23T21:21:42.812Z,6.42
2019-05-23T21:24:11.423Z,5.03
2019-05-23T21:26:39.995Z,4.40
2019-05-23T21:29:08.511Z,5.22
2019-05-23T21:31:37.209Z,4.70
2019-05-23T21:34:07.202Z,5.22
2019-05-23T21:36:35.748Z,5.47
2019-05-23T21:39:07.805Z,6.15
2019-05-23T21:41:36.334Z,5.10
2019-05-23T21:44:05.049Z,5.37
2019-05-23T21:46:34.267Z,4.85
2019-05-23T21:49:02.899Z,6.45
2019-05-23T21:51:31.572Z,7.15
2019-05-23T21:54:00.154Z,5.03
2019-05-23T21:56:28.800Z,5.05
2019-05-23T21:58:57.557Z,7.22
2019-05-23T22:01:27.947Z,6.42
2019-05-23T22:04:04.436Z,5.03
2019-05-23T22:06:34.724Z,5.97
2019-05-23T22:09:05.178Z,7.17
2019-05-23T22:11:33.798Z,5.72
2019-05-23T22:14:02.358Z,4.35
2019-05-23T22:16:31.094Z,4.47
2019-05-23T22:18:59.731Z,6.17
2019-05-23T22:21:28.593Z,6.47
2019-05-23T22:23:57.309Z,5.12
2019-05-23T22:26:25.883Z,4.80
2019-05-23T22:28:54.522Z,7.33
2019-05-23T22:31:23.613Z,4.55
2019-05-23T22:34:02.723Z,7.95
2019-05-23T22:36:31.453Z,6.17
2019-05-23T22:39:00.265Z,6.87
2019-05-23T22:41:28.986Z,4.90
2019-05-23T22:43:57.620Z,5.62
2019-05-23T22:46:27.365Z,6.05
2019-05-23T22:48:55.982Z,5.08
2019-05-23T22:51:24.468Z,5.62
2019-05-23T22:53:52.963Z,5.87
2019-05-23T22:56:21.787Z,9.23
2019-05-23T22:58:50.321Z,5.25
2019-05-23T23:01:18.922Z,6.72
2019-05-23T23:03:47.447Z,6.42
2019-05-23T23:06:15.933Z,7.42
2019-05-23T23:08:44.663Z,6.58
2019-05-23T23:11:13.640Z,8.73
2019-05-23T23:13:42.234Z,5.75
2019-05-23T23:16:10.793Z,6.20
2019-05-23T23:18:39.334Z,5.85
2019-05-23T23:21:07.824Z,4.95
2019-05-23T23:23:36.386Z,9.15
2019-05-23T23:26:05.072Z,8.88
2019-05-23T23:28:34.031Z,8.90
2019-05-23T23:31:02.781Z,7.78
2019-05-23T23:33:31.343Z,5.12
2019-05-23T23:35:59.891Z,8.40
2019-05-23T23:38:28.366Z,7.40
2019-05-23T23:40:57.176Z,8.43
2019-05-23T23:43:25.730Z,6.10
2019-05-23T23:46:11.563Z,6.03
2019-05-23T23:48:57.856Z,8.30
2019-05-23T23:51:44.105Z,6.25
2019-05-23T23:54:30.486Z,5.90
2019-05-23T23:57:16.679Z,9.08
2019-05-23T23:59:44.540Z,7.87
